CheckWX is a tool to help pilots better visualize weather data.  It is not intended as a substitute for an official pre-flight weather briefing.

23:41:19 UTC

LIRH TAF
Frosinone Military Airport
Frosinone, Italy
TAF LIRH 061400Z 0615/0624 22010KT 9999 FEW040 BECMG 0618/0620 VRB03KT CAVOK

Jul-6@
15:00 UTC

Jul-6 @ 15:00 UTC

Jul-6@
18:00 UTC

Jul-6 @ 18:00 UTC

TAF LIRH 061400Z 0615/0624 22010KT 9999 FEW040

Expired

Wind
  • 220° at 10 KTS
Cloud Levels
  • Few at 4,000' AGL

Jul-6@
18:00 UTC

Jul-6 @ 18:00 UTC

Jul-7@
00:00 UTC

Jul-7 @ 00:00 UTC

BECMG 0618/0620 VRB03KT CAVOK

Becoming

Becoming Conditions expected by Mon, Jul 6, 2020 @ 20:00 UTC

Wind
  • Variable at 3 KTS
Conditions
No significant weather
Cloud Levels
  • No significant clouds